sensor_id;sensor_type;location;lat;lon;timestamp;temperature;humidity
17571;DHT22;8903;52.220;20.978;2022-12-20T00:01:28;-1.50;99.90
17571;DHT22;8903;52.220;20.978;2022-12-20T00:03:56;-1.50;99.90
17571;DHT22;8903;52.220;20.978;2022-12-20T00:06:24;-1.40;99.90
17571;DHT22;8903;52.220;20.978;2022-12-20T00:08:53;-1.40;99.90
17571;DHT22;8903;52.220;20.978;2022-12-20T00:11:20;-1.40;99.90
17571;DHT22;8903;52.220;20.978;2022-12-20T00:13:48;-1.30;99.90
17571;DHT22;8903;52.220;20.978;2022-12-20T00:16:17;-1.30;99.90
17571;DHT22;8903;52.220;20.978;2022-12-20T00:18:50;-1.30;99.90
17571;DHT22;8903;52.220;20.978;2022-12-20T00:21:17;-1.30;99.90
17571;DHT22;8903;52.220;20.978;2022-12-20T00:23:44;-1.30;99.90
17571;DHT22;8903;52.220;20.978;2022-12-20T00:26:13;-1.20;99.90
17571;DHT22;8903;52.220;20.978;2022-12-20T00:28:43;-1.20;99.90
17571;DHT22;8903;52.220;20.978;2022-12-20T00:31:11;-1.20;99.90
17571;DHT22;8903;52.220;20.978;2022-12-20T00:33:39;-1.20;99.90
17571;DHT22;8903;52.220;20.978;2022-12-20T00:36:09;-1.20;99.90
17571;DHT22;8903;52.220;20.978;2022-12-20T00:38:36;-1.20;99.90
17571;DHT22;8903;52.220;20.978;2022-12-20T00:41:04;-1.10;99.90
17571;DHT22;8903;52.220;20.978;2022-12-20T00:43:32;-1.10;99.90
17571;DHT22;8903;52.220;20.978;2022-12-20T00:46:00;-1.10;99.90
17571;DHT22;8903;52.220;20.978;2022-12-20T00:48:28;-1.10;99.90
17571;DHT22;8903;52.220;20.978;2022-12-20T00:50:57;-1.00;99.90
17571;DHT22;8903;52.220;20.978;2022-12-20T00:53:27;-1.00;99.90
17571;DHT22;8903;52.220;20.978;2022-12-20T00:55:54;-1.00;99.90
17571;DHT22;8903;52.220;20.978;2022-12-20T00:58:21;-0.90;99.90
17571;DHT22;8903;52.220;20.978;2022-12-20T01:00:48;-0.90;99.90
17571;DHT22;8903;52.220;20.978;2022-12-20T01:03:16;-0.90;99.90
17571;DHT22;8903;52.220;20.978;2022-12-20T01:05:50;-0.90;99.90
17571;DHT22;8903;52.220;20.978;2022-12-20T01:08:18;-0.80;99.90
17571;DHT22;8903;52.220;20.978;2022-12-20T01:10:46;-0.80;99.90
17571;DHT22;8903;52.220;20.978;2022-12-20T01:13:13;-0.80;99.90
17571;DHT22;8903;52.220;20.978;2022-12-20T01:15:40;-0.70;99.90
17571;DHT22;8903;52.220;20.978;2022-12-20T01:18:08;-0.70;99.90
17571;DHT22;8903;52.220;20.978;2022-12-20T01:20:35;-0.70;99.90
17571;DHT22;8903;52.220;20.978;2022-12-20T01:23:02;-0.60;99.90
17571;DHT22;8903;52.220;20.978;2022-12-20T01:25:29;-0.60;99.90
17571;DHT22;8903;52.220;20.978;2022-12-20T01:27:57;-0.60;99.90
17571;DHT22;8903;52.220;20.978;2022-12-20T01:30:24;-0.50;99.90
17571;DHT22;8903;52.220;20.978;2022-12-20T01:32:51;-0.50;99.90
17571;DHT22;8903;52.220;20.978;2022-12-20T01:35:18;-0.50;99.90
17571;DHT22;8903;52.220;20.978;2022-12-20T01:37:45;-0.40;99.90
17571;DHT22;8903;52.220;20.978;2022-12-20T01:40:12;-0.40;99.90
17571;DHT22;8903;52.220;20.978;2022-12-20T01:42:39;-0.40;99.90
17571;DHT22;8903;52.220;20.978;2022-12-20T01:45:13;-0.40;99.90
17571;DHT22;8903;52.220;20.978;2022-12-20T01:47:43;-0.40;99.90
17571;DHT22;8903;52.220;20.978;2022-12-20T01:50:10;-0.30;99.90
17571;DHT22;8903;52.220;20.978;2022-12-20T01:52:39;-0.30;99.90
17571;DHT22;8903;52.220;20.978;2022-12-20T01:55:10;-0.30;99.90
17571;DHT22;8903;52.220;20.978;2022-12-20T01:57:42;-0.20;99.90
17571;DHT22;8903;52.220;20.978;2022-12-20T02:00:12;-0.20;99.90
17571;DHT22;8903;52.220;20.978;2022-12-20T02:02:40;-0.20;99.90
17571;DHT22;8903;52.220;20.978;2022-12-20T02:05:09;-0.10;99.90
17571;DHT22;8903;52.220;20.978;2022-12-20T02:07:39;-0.10;99.90
17571;DHT22;8903;52.220;20.978;2022-12-20T02:10:10;-0.10;99.90
17571;DHT22;8903;52.220;20.978;2022-12-20T02:12:39;-0.10;99.90
17571;DHT22;8903;52.220;20.978;2022-12-20T02:15:25;-0.10;99.90
17571;DHT22;8903;52.220;20.978;2022-12-20T02:18:07;-0.10;99.90
17571;DHT22;8903;52.220;20.978;2022-12-20T02:20:55;-0.10;99.90
17571;DHT22;8903;52.220;20.978;2022-12-20T02:23:40;0.00;99.90
17571;DHT22;8903;52.220;20.978;2022-12-20T02:29:14;0.00;99.90
17571;DHT22;8903;52.220;20.978;2022-12-20T02:31:52;0.00;99.90
17571;DHT22;8903;52.220;20.978;2022-12-20T02:34:22;0.00;99.90
17571;DHT22;8903;52.220;20.978;2022-12-20T02:36:50;0.00;99.90
17571;DHT22;8903;52.220;20.978;2022-12-20T02:39:17;0.00;99.90
17571;DHT22;8903;52.220;20.978;2022-12-20T02:41:47;0.10;99.90
17571;DHT22;8903;52.220;20.978;2022-12-20T02:44:19;0.10;99.90
17571;DHT22;8903;52.220;20.978;2022-12-20T02:47:11;0.10;99.90
17571;DHT22;8903;52.220;20.978;2022-12-20T02:49:41;0.10;99.90
17571;DHT22;8903;52.220;20.978;2022-12-20T02:52:11;0.10;99.90
17571;DHT22;8903;52.220;20.978;2022-12-20T02:54:39;0.10;99.90
17571;DHT22;8903;52.220;20.978;2022-12-20T02:57:11;0.20;99.90
17571;DHT22;8903;52.220;20.978;2022-12-20T02:59:46;0.20;99.90
17571;DHT22;8903;52.220;20.978;2022-12-20T03:02:16;0.20;99.90
17571;DHT22;8903;52.220;20.978;2022-12-20T03:04:45;0.20;99.90
17571;DHT22;8903;52.220;20.978;2022-12-20T03:07:14;0.20;99.90
17571;DHT22;8903;52.220;20.978;2022-12-20T03:09:43;0.20;99.90
17571;DHT22;8903;52.220;20.978;2022-12-20T03:12:14;0.30;99.90
17571;DHT22;8903;52.220;20.978;2022-12-20T03:14:42;0.30;99.90
17571;DHT22;8903;52.220;20.978;2022-12-20T03:17:11;0.30;99.90
17571;DHT22;8903;52.220;20.978;2022-12-20T03:19:39;0.30;99.90
17571;DHT22;8903;52.220;20.978;2022-12-20T03:22:06;0.30;99.90
17571;DHT22;8903;52.220;20.978;2022-12-20T03:24:33;0.30;99.90
17571;DHT22;8903;52.220;20.978;2022-12-20T03:27:05;0.30;99.90
17571;DHT22;8903;52.220;20.978;2022-12-20T03:29:32;0.30;99.90
17571;DHT22;8903;52.220;20.978;2022-12-20T03:31:59;0.30;99.90
17571;DHT22;8903;52.220;20.978;2022-12-20T03:34:26;0.30;99.90
17571;DHT22;8903;52.220;20.978;2022-12-20T03:36:54;0.40;99.90
17571;DHT22;8903;52.220;20.978;2022-12-20T03:39:21;0.40;99.90
17571;DHT22;8903;52.220;20.978;2022-12-20T03:41:50;0.40;99.90
17571;DHT22;8903;52.220;20.978;2022-12-20T03:44:17;0.40;99.90
17571;DHT22;8903;52.220;20.978;2022-12-20T03:46:44;0.40;99.90
17571;DHT22;8903;52.220;20.978;2022-12-20T03:49:12;0.40;99.90
17571;DHT22;8903;52.220;20.978;2022-12-20T03:51:45;0.40;99.90
17571;DHT22;8903;52.220;20.978;2022-12-20T03:54:14;0.40;99.90
17571;DHT22;8903;52.220;20.978;2022-12-20T03:57:05;0.40;99.90
17571;DHT22;8903;52.220;20.978;2022-12-20T03:59:33;0.40;99.90
17571;DHT22;8903;52.220;20.978;2022-12-20T04:02:02;0.40;99.90
17571;DHT22;8903;52.220;20.978;2022-12-20T04:04:30;0.50;99.90
17571;DHT22;8903;52.220;20.978;2022-12-20T04:06:57;0.50;99.90
17571;DHT22;8903;52.220;20.978;2022-12-20T04:09:26;0.50;99.90
17571;DHT22;8903;52.220;20.978;2022-12-20T04:12:00;0.50;99.90
17571;DHT22;8903;52.220;20.978;2022-12-20T04:14:28;0.50;99.90
17571;DHT22;8903;52.220;20.978;2022-12-20T04:16:56;0.50;99.90
17571;DHT22;8903;52.220;20.978;2022-12-20T04:19:23;0.50;99.90
17571;DHT22;8903;52.220;20.978;2022-12-20T04:21:50;0.50;99.90
17571;DHT22;8903;52.220;20.978;2022-12-20T04:24:19;0.50;99.90
17571;DHT22;8903;52.220;20.978;2022-12-20T04:27:02;0.50;99.90
17571;DHT22;8903;52.220;20.978;2022-12-20T04:29:30;0.50;99.90
17571;DHT22;8903;52.220;20.978;2022-12-20T04:31:58;0.50;99.90
17571;DHT22;8903;52.220;20.978;2022-12-20T04:34:25;0.50;99.90
17571;DHT22;8903;52.220;20.978;2022-12-20T04:36:52;0.50;99.90
17571;DHT22;8903;52.220;20.978;2022-12-20T04:39:29;0.50;99.90
17571;DHT22;8903;52.220;20.978;2022-12-20T04:42:16;0.60;99.90
17571;DHT22;8903;52.220;20.978;2022-12-20T04:44:44;0.60;99.90
17571;DHT22;8903;52.220;20.978;2022-12-20T04:47:14;0.60;99.90
17571;DHT22;8903;52.220;20.978;2022-12-20T04:49:42;0.60;99.90
17571;DHT22;8903;52.220;20.978;2022-12-20T04:52:09;0.60;99.90
17571;DHT22;8903;52.220;20.978;2022-12-20T04:54:53;0.60;99.90
17571;DHT22;8903;52.220;20.978;2022-12-20T04:57:26;0.60;99.90
17571;DHT22;8903;52.220;20.978;2022-12-20T04:59:53;0.60;99.90
17571;DHT22;8903;52.220;20.978;2022-12-20T05:02:20;0.60;99.90
17571;DHT22;8903;52.220;20.978;2022-12-20T05:04:54;0.60;99.90
17571;DHT22;8903;52.220;20.978;2022-12-20T05:07:21;0.60;99.90
17571;DHT22;8903;52.220;20.978;2022-12-20T05:09:51;0.60;99.90
17571;DHT22;8903;52.220;20.978;2022-12-20T05:12:18;0.60;99.90
17571;DHT22;8903;52.220;20.978;2022-12-20T05:14:47;0.60;99.90
17571;DHT22;8903;52.220;20.978;2022-12-20T05:17:17;0.70;99.90
17571;DHT22;8903;52.220;20.978;2022-12-20T05:19:45;0.70;99.90
17571;DHT22;8903;52.220;20.978;2022-12-20T05:22:14;0.70;99.90
17571;DHT22;8903;52.220;20.978;2022-12-20T05:25:09;0.70;99.90
17571;DHT22;8903;52.220;20.978;2022-12-20T05:28:01;0.70;99.90
17571;DHT22;8903;52.220;20.978;2022-12-20T05:30:34;0.70;99.90
17571;DHT22;8903;52.220;20.978;2022-12-20T05:33:01;0.70;99.90
17571;DHT22;8903;52.220;20.978;2022-12-20T05:35:30;0.80;99.90
17571;DHT22;8903;52.220;20.978;2022-12-20T05:38:08;0.80;99.90
17571;DHT22;8903;52.220;20.978;2022-12-20T05:40:35;0.80;99.90
17571;DHT22;8903;52.220;20.978;2022-12-20T05:43:03;0.80;99.90
17571;DHT22;8903;52.220;20.978;2022-12-20T05:45:44;0.80;99.90
17571;DHT22;8903;52.220;20.978;2022-12-20T05:48:14;0.80;99.90
17571;DHT22;8903;52.220;20.978;2022-12-20T05:50:42;0.80;99.90
17571;DHT22;8903;52.220;20.978;2022-12-20T05:53:21;0.80;99.90
17571;DHT22;8903;52.220;20.978;2022-12-20T05:55:52;0.80;99.90
17571;DHT22;8903;52.220;20.978;2022-12-20T05:58:24;0.80;99.90
17571;DHT22;8903;52.220;20.978;2022-12-20T06:00:59;0.80;99.90
17571;DHT22;8903;52.220;20.978;2022-12-20T06:03:27;0.80;99.90
17571;DHT22;8903;52.220;20.978;2022-12-20T06:05:54;0.80;99.90
17571;DHT22;8903;52.220;20.978;2022-12-20T06:08:26;0.80;99.90
17571;DHT22;8903;52.220;20.978;2022-12-20T06:10:54;0.80;99.90
17571;DHT22;8903;52.220;20.978;2022-12-20T06:13:22;0.90;99.90
17571;DHT22;8903;52.220;20.978;2022-12-20T06:15:52;0.90;99.90
17571;DHT22;8903;52.220;20.978;2022-12-20T06:18:21;0.90;99.90
17571;DHT22;8903;52.220;20.978;2022-12-20T06:20:52;0.90;99.90
17571;DHT22;8903;52.220;20.978;2022-12-20T06:23:22;0.90;99.90
17571;DHT22;8903;52.220;20.978;2022-12-20T06:26:01;0.90;99.90
17571;DHT22;8903;52.220;20.978;2022-12-20T06:28:32;0.90;99.90
17571;DHT22;8903;52.220;20.978;2022-12-20T06:30:59;0.90;99.90
17571;DHT22;8903;52.220;20.978;2022-12-20T06:33:38;0.90;99.90
17571;DHT22;8903;52.220;20.978;2022-12-20T06:36:06;0.90;99.90
17571;DHT22;8903;52.220;20.978;2022-12-20T06:38:33;0.90;99.90
17571;DHT22;8903;52.220;20.978;2022-12-20T06:41:00;0.90;99.90
17571;DHT22;8903;52.220;20.978;2022-12-20T06:43:27;0.90;99.90
17571;DHT22;8903;52.220;20.978;2022-12-20T06:45:54;0.90;99.90
17571;DHT22;8903;52.220;20.978;2022-12-20T06:48:21;1.00;99.90
17571;DHT22;8903;52.220;20.978;2022-12-20T06:50:50;1.00;99.90
17571;DHT22;8903;52.220;20.978;2022-12-20T06:53:19;1.00;99.90
17571;DHT22;8903;52.220;20.978;2022-12-20T06:55:47;1.00;99.90
17571;DHT22;8903;52.220;20.978;2022-12-20T06:58:15;1.10;99.90
17571;DHT22;8903;52.220;20.978;2022-12-20T07:00:44;1.10;99.90
17571;DHT22;8903;52.220;20.978;2022-12-20T07:03:12;1.10;99.90
17571;DHT22;8903;52.220;20.978;2022-12-20T07:05:40;1.10;99.90
17571;DHT22;8903;52.220;20.978;2022-12-20T07:08:08;1.10;99.90
17571;DHT22;8903;52.220;20.978;2022-12-20T07:10:36;1.10;99.90
17571;DHT22;8903;52.220;20.978;2022-12-20T07:13:03;1.20;99.90
17571;DHT22;8903;52.220;20.978;2022-12-20T07:15:30;1.20;99.90
17571;DHT22;8903;52.220;20.978;2022-12-20T07:17:57;1.20;99.90
17571;DHT22;8903;52.220;20.978;2022-12-20T07:20:24;1.20;99.90
17571;DHT22;8903;52.220;20.978;2022-12-20T07:22:51;1.20;99.90
17571;DHT22;8903;52.220;20.978;2022-12-20T07:25:19;1.20;99.90
17571;DHT22;8903;52.220;20.978;2022-12-20T07:27:46;1.30;99.90
17571;DHT22;8903;52.220;20.978;2022-12-20T07:30:14;1.30;99.90
17571;DHT22;8903;52.220;20.978;2022-12-20T07:32:41;1.40;99.90
17571;DHT22;8903;52.220;20.978;2022-12-20T07:35:09;1.40;99.90
17571;DHT22;8903;52.220;20.978;2022-12-20T07:37:36;1.40;99.90
17571;DHT22;8903;52.220;20.978;2022-12-20T07:40:04;1.50;99.90
17571;DHT22;8903;52.220;20.978;2022-12-20T07:42:32;1.50;99.90
17571;DHT22;8903;52.220;20.978;2022-12-20T07:44:59;1.50;99.90
17571;DHT22;8903;52.220;20.978;2022-12-20T07:47:27;1.60;99.90
17571;DHT22;8903;52.220;20.978;2022-12-20T07:49:54;1.60;99.90
17571;DHT22;8903;52.220;20.978;2022-12-20T07:52:22;1.70;99.90
17571;DHT22;8903;52.220;20.978;2022-12-20T07:54:52;1.70;99.90
17571;DHT22;8903;52.220;20.978;2022-12-20T07:57:28;1.70;99.90
17571;DHT22;8903;52.220;20.978;2022-12-20T07:59:58;1.70;99.90
17571;DHT22;8903;52.220;20.978;2022-12-20T08:02:29;1.80;99.90
17571;DHT22;8903;52.220;20.978;2022-12-20T08:04:57;1.80;99.90
17571;DHT22;8903;52.220;20.978;2022-12-20T08:07:26;1.80;99.90
17571;DHT22;8903;52.220;20.978;2022-12-20T08:09:54;1.90;99.90
17571;DHT22;8903;52.220;20.978;2022-12-20T08:12:21;1.90;99.90
17571;DHT22;8903;52.220;20.978;2022-12-20T08:14:49;1.90;99.90
17571;DHT22;8903;52.220;20.978;2022-12-20T08:17:22;1.90;99.90
17571;DHT22;8903;52.220;20.978;2022-12-20T08:19:48;2.00;99.90
17571;DHT22;8903;52.220;20.978;2022-12-20T08:22:16;2.00;99.90
17571;DHT22;8903;52.220;20.978;2022-12-20T08:24:43;2.00;99.90
17571;DHT22;8903;52.220;20.978;2022-12-20T08:27:11;2.00;99.90
17571;DHT22;8903;52.220;20.978;2022-12-20T08:29:37;2.00;99.90
17571;DHT22;8903;52.220;20.978;2022-12-20T08:32:04;2.10;99.90
17571;DHT22;8903;52.220;20.978;2022-12-20T08:34:32;2.10;99.90
17571;DHT22;8903;52.220;20.978;2022-12-20T08:36:59;2.10;99.90
17571;DHT22;8903;52.220;20.978;2022-12-20T08:39:26;2.20;99.90
17571;DHT22;8903;52.220;20.978;2022-12-20T08:41:53;2.20;99.90
17571;DHT22;8903;52.220;20.978;2022-12-20T08:44:20;2.30;99.90
17571;DHT22;8903;52.220;20.978;2022-12-20T08:46:47;2.30;99.90
17571;DHT22;8903;52.220;20.978;2022-12-20T08:49:14;2.30;99.90
17571;DHT22;8903;52.220;20.978;2022-12-20T08:51:42;2.40;99.90
17571;DHT22;8903;52.220;20.978;2022-12-20T08:54:09;2.40;99.90
17571;DHT22;8903;52.220;20.978;2022-12-20T08:56:36;2.50;99.90
17571;DHT22;8903;52.220;20.978;2022-12-20T08:59:03;2.50;99.90
17571;DHT22;8903;52.220;20.978;2022-12-20T09:01:30;2.60;99.90
17571;DHT22;8903;52.220;20.978;2022-12-20T09:03:58;2.70;99.90
17571;DHT22;8903;52.220;20.978;2022-12-20T09:06:25;2.70;99.90
17571;DHT22;8903;52.220;20.978;2022-12-20T09:08:53;2.70;99.90
17571;DHT22;8903;52.220;20.978;2022-12-20T09:11:22;2.70;99.90
17571;DHT22;8903;52.220;20.978;2022-12-20T09:13:50;2.80;99.90
17571;DHT22;8903;52.220;20.978;2022-12-20T09:16:19;2.80;99.90
17571;DHT22;8903;52.220;20.978;2022-12-20T09:18:48;2.90;99.90
17571;DHT22;8903;52.220;20.978;2022-12-20T09:21:15;3.00;99.90
17571;DHT22;8903;52.220;20.978;2022-12-20T09:23:42;3.00;99.90
17571;DHT22;8903;52.220;20.978;2022-12-20T09:26:12;3.10;99.90
17571;DHT22;8903;52.220;20.978;2022-12-20T09:28:40;3.20;99.90
17571;DHT22;8903;52.220;20.978;2022-12-20T09:31:10;3.30;99.90
17571;DHT22;8903;52.220;20.978;2022-12-20T09:33:37;3.30;99.90
17571;DHT22;8903;52.220;20.978;2022-12-20T09:36:05;3.40;99.90
17571;DHT22;8903;52.220;20.978;2022-12-20T09:38:32;3.50;99.90
17571;DHT22;8903;52.220;20.978;2022-12-20T09:41:02;3.50;99.90
17571;DHT22;8903;52.220;20.978;2022-12-20T09:43:31;3.60;99.90
17571;DHT22;8903;52.220;20.978;2022-12-20T09:46:01;3.60;99.90
17571;DHT22;8903;52.220;20.978;2022-12-20T09:48:31;3.70;99.90
17571;DHT22;8903;52.220;20.978;2022-12-20T09:51:09;3.80;99.90
17571;DHT22;8903;52.220;20.978;2022-12-20T09:53:48;3.80;99.90
17571;DHT22;8903;52.220;20.978;2022-12-20T09:56:23;3.90;99.90
17571;DHT22;8903;52.220;20.978;2022-12-20T09:59:02;3.90;99.90
17571;DHT22;8903;52.220;20.978;2022-12-20T10:01:31;4.00;99.90
17571;DHT22;8903;52.220;20.978;2022-12-20T10:04:02;4.10;99.90
17571;DHT22;8903;52.220;20.978;2022-12-20T10:06:39;4.10;99.90
17571;DHT22;8903;52.220;20.978;2022-12-20T10:09:15;4.20;99.90
17571;DHT22;8903;52.220;20.978;2022-12-20T10:11:57;4.20;99.90
17571;DHT22;8903;52.220;20.978;2022-12-20T10:14:41;4.10;99.90
17571;DHT22;8903;52.220;20.978;2022-12-20T10:17:13;4.20;99.90
17571;DHT22;8903;52.220;20.978;2022-12-20T10:19:57;4.30;99.90
17571;DHT22;8903;52.220;20.978;2022-12-20T10:22:31;4.30;99.90
17571;DHT22;8903;52.220;20.978;2022-12-20T10:25:07;4.30;99.90
17571;DHT22;8903;52.220;20.978;2022-12-20T10:27:40;4.30;99.90
17571;DHT22;8903;52.220;20.978;2022-12-20T10:30:12;4.30;99.90
17571;DHT22;8903;52.220;20.978;2022-12-20T10:32:41;4.30;99.90
17571;DHT22;8903;52.220;20.978;2022-12-20T10:35:22;4.30;99.90
17571;DHT22;8903;52.220;20.978;2022-12-20T10:37:57;4.30;99.90
17571;DHT22;8903;52.220;20.978;2022-12-20T10:40:26;4.30;99.90
17571;DHT22;8903;52.220;20.978;2022-12-20T10:42:54;4.20;99.90
17571;DHT22;8903;52.220;20.978;2022-12-20T10:45:31;4.20;99.90
17571;DHT22;8903;52.220;20.978;2022-12-20T10:48:01;4.20;99.90
17571;DHT22;8903;52.220;20.978;2022-12-20T10:50:28;4.30;99.90
17571;DHT22;8903;52.220;20.978;2022-12-20T10:53:20;4.30;99.90
17571;DHT22;8903;52.220;20.978;2022-12-20T10:55:49;4.20;99.90
17571;DHT22;8903;52.220;20.978;2022-12-20T10:58:20;4.20;99.90
17571;DHT22;8903;52.220;20.978;2022-12-20T11:00:49;4.20;99.90
17571;DHT22;8903;52.220;20.978;2022-12-20T11:03:18;4.20;99.90
17571;DHT22;8903;52.220;20.978;2022-12-20T11:05:56;4.30;99.90
17571;DHT22;8903;52.220;20.978;2022-12-20T11:08:24;4.30;99.90
17571;DHT22;8903;52.220;20.978;2022-12-20T11:11:11;4.30;99.90
17571;DHT22;8903;52.220;20.978;2022-12-20T11:13:39;4.40;99.90
17571;DHT22;8903;52.220;20.978;2022-12-20T11:16:33;4.40;99.90
17571;DHT22;8903;52.220;20.978;2022-12-20T11:22:07;4.40;99.90
17571;DHT22;8903;52.220;20.978;2022-12-20T11:24:44;4.40;99.90
17571;DHT22;8903;52.220;20.978;2022-12-20T11:27:22;4.30;99.90
17571;DHT22;8903;52.220;20.978;2022-12-20T11:30:11;4.30;99.90
17571;DHT22;8903;52.220;20.978;2022-12-20T11:33:12;4.20;99.90
17571;DHT22;8903;52.220;20.978;2022-12-20T11:35:48;4.30;99.90
17571;DHT22;8903;52.220;20.978;2022-12-20T11:38:28;4.30;99.90
17571;DHT22;8903;52.220;20.978;2022-12-20T11:41:07;4.30;99.90
17571;DHT22;8903;52.220;20.978;2022-12-20T11:43:45;4.30;99.90
17571;DHT22;8903;52.220;20.978;2022-12-20T11:46:29;4.30;99.90
17571;DHT22;8903;52.220;20.978;2022-12-20T11:49:23;4.40;99.90
17571;DHT22;8903;52.220;20.978;2022-12-20T11:52:00;4.40;99.90
17571;DHT22;8903;52.220;20.978;2022-12-20T11:54:34;4.40;99.90
17571;DHT22;8903;52.220;20.978;2022-12-20T11:57:06;4.50;99.90
17571;DHT22;8903;52.220;20.978;2022-12-20T11:59:41;4.50;99.90
17571;DHT22;8903;52.220;20.978;2022-12-20T12:02:12;4.60;99.90
17571;DHT22;8903;52.220;20.978;2022-12-20T12:04:43;4.70;99.90
17571;DHT22;8903;52.220;20.978;2022-12-20T12:07:15;4.70;99.90
17571;DHT22;8903;52.220;20.978;2022-12-20T12:09:50;4.90;99.90
17571;DHT22;8903;52.220;20.978;2022-12-20T12:12:24;4.90;99.90
17571;DHT22;8903;52.220;20.978;2022-12-20T12:14:57;5.00;99.90
17571;DHT22;8903;52.220;20.978;2022-12-20T12:17:30;5.10;99.90
17571;DHT22;8903;52.220;20.978;2022-12-20T12:22:53;5.30;99.90
17571;DHT22;8903;52.220;20.978;2022-12-20T12:25:23;5.70;99.90
17571;DHT22;8903;52.220;20.978;2022-12-20T12:27:50;5.80;99.90
17571;DHT22;8903;52.220;20.978;2022-12-20T12:30:17;5.70;99.90
17571;DHT22;8903;52.220;20.978;2022-12-20T12:32:49;5.60;99.90
17571;DHT22;8903;52.220;20.978;2022-12-20T12:35:37;5.60;99.90
17571;DHT22;8903;52.220;20.978;2022-12-20T12:38:22;5.50;99.90
17571;DHT22;8903;52.220;20.978;2022-12-20T12:41:11;5.30;99.90
17571;DHT22;8903;52.220;20.978;2022-12-20T12:43:45;5.30;99.90
17571;DHT22;8903;52.220;20.978;2022-12-20T12:46:16;5.50;99.90
17571;DHT22;8903;52.220;20.978;2022-12-20T12:48:48;5.80;99.90
17571;DHT22;8903;52.220;20.978;2022-12-20T12:51:23;6.20;99.90
17571;DHT22;8903;52.220;20.978;2022-12-20T12:53:53;6.10;99.90
17571;DHT22;8903;52.220;20.978;2022-12-20T12:56:40;5.80;99.90
17571;DHT22;8903;52.220;20.978;2022-12-20T12:59:18;5.50;99.90
17571;DHT22;8903;52.220;20.978;2022-12-20T13:01:47;5.30;99.90
17571;DHT22;8903;52.220;20.978;2022-12-20T13:04:26;5.10;99.90
17571;DHT22;8903;52.220;20.978;2022-12-20T13:07:01;4.90;99.90
17571;DHT22;8903;52.220;20.978;2022-12-20T13:09:40;4.80;99.90
17571;DHT22;8903;52.220;20.978;2022-12-20T13:15:46;4.60;99.90
17571;DHT22;8903;52.220;20.978;2022-12-20T13:18:31;4.50;99.90
17571;DHT22;8903;52.220;20.978;2022-12-20T13:21:23;4.50;99.90
17571;DHT22;8903;52.220;20.978;2022-12-20T13:27:15;4.40;99.90
17571;DHT22;8903;52.220;20.978;2022-12-20T13:33:18;4.30;99.90
17571;DHT22;8903;52.220;20.978;2022-12-20T13:36:31;4.20;99.90
17571;DHT22;8903;52.220;20.978;2022-12-20T13:39:00;4.20;99.90
17571;DHT22;8903;52.220;20.978;2022-12-20T13:41:37;4.10;99.90
17571;DHT22;8903;52.220;20.978;2022-12-20T13:44:38;4.10;99.90
17571;DHT22;8903;52.220;20.978;2022-12-20T13:47:19;4.10;99.90
17571;DHT22;8903;52.220;20.978;2022-12-20T13:49:49;4.00;99.90
17571;DHT22;8903;52.220;20.978;2022-12-20T13:52:37;4.00;99.90
17571;DHT22;8903;52.220;20.978;2022-12-20T13:55:15;3.90;99.90
17571;DHT22;8903;52.220;20.978;2022-12-20T13:57:44;3.90;99.90
17571;DHT22;8903;52.220;20.978;2022-12-20T14:00:17;3.90;99.90
17571;DHT22;8903;52.220;20.978;2022-12-20T14:02:44;3.90;99.90
17571;DHT22;8903;52.220;20.978;2022-12-20T14:05:18;3.90;99.90
17571;DHT22;8903;52.220;20.978;2022-12-20T14:07:48;3.80;99.90
17571;DHT22;8903;52.220;20.978;2022-12-20T14:10:20;3.80;99.90
17571;DHT22;8903;52.220;20.978;2022-12-20T14:12:49;3.80;99.90
17571;DHT22;8903;52.220;20.978;2022-12-20T14:15:28;3.80;99.90
17571;DHT22;8903;52.220;20.978;2022-12-20T14:17:56;3.80;99.90
17571;DHT22;8903;52.220;20.978;2022-12-20T14:20:35;3.80;99.90
17571;DHT22;8903;52.220;20.978;2022-12-20T14:23:04;3.70;99.90
17571;DHT22;8903;52.220;20.978;2022-12-20T14:25:40;3.80;99.90
17571;DHT22;8903;52.220;20.978;2022-12-20T14:28:17;3.70;99.90
17571;DHT22;8903;52.220;20.978;2022-12-20T14:30:48;3.70;99.90
17571;DHT22;8903;52.220;20.978;2022-12-20T14:33:26;3.70;99.90
17571;DHT22;8903;52.220;20.978;2022-12-20T14:35:54;3.70;99.90
17571;DHT22;8903;52.220;20.978;2022-12-20T14:38:23;3.60;99.90
17571;DHT22;8903;52.220;20.978;2022-12-20T14:40:55;3.60;99.90
17571;DHT22;8903;52.220;20.978;2022-12-20T14:43:25;3.60;99.90
17571;DHT22;8903;52.220;20.978;2022-12-20T14:46:17;3.60;99.90
17571;DHT22;8903;52.220;20.978;2022-12-20T14:48:45;3.60;99.90
17571;DHT22;8903;52.220;20.978;2022-12-20T14:51:13;3.60;99.90
17571;DHT22;8903;52.220;20.978;2022-12-20T14:53:46;3.60;99.90
17571;DHT22;8903;52.220;20.978;2022-12-20T14:56:16;3.60;99.90
17571;DHT22;8903;52.220;20.978;2022-12-20T14:58:44;3.60;99.90
17571;DHT22;8903;52.220;20.978;2022-12-20T15:01:20;3.50;99.90
17571;DHT22;8903;52.220;20.978;2022-12-20T15:03:49;3.50;99.90
17571;DHT22;8903;52.220;20.978;2022-12-20T15:06:31;3.50;99.90
17571;DHT22;8903;52.220;20.978;2022-12-20T15:08:59;3.50;99.90
17571;DHT22;8903;52.220;20.978;2022-12-20T15:11:26;3.40;99.90
17571;DHT22;8903;52.220;20.978;2022-12-20T15:13:55;3.50;99.90
17571;DHT22;8903;52.220;20.978;2022-12-20T15:16:26;3.40;99.90
17571;DHT22;8903;52.220;20.978;2022-12-20T15:18:55;3.40;99.90
17571;DHT22;8903;52.220;20.978;2022-12-20T15:21:28;3.30;99.90
17571;DHT22;8903;52.220;20.978;2022-12-20T15:23:56;3.30;99.90
17571;DHT22;8903;52.220;20.978;2022-12-20T15:26:25;3.20;99.90
17571;DHT22;8903;52.220;20.978;2022-12-20T15:28:52;3.20;99.90
17571;DHT22;8903;52.220;20.978;2022-12-20T15:31:21;3.20;99.90
17571;DHT22;8903;52.220;20.978;2022-12-20T15:33:51;3.10;99.90
17571;DHT22;8903;52.220;20.978;2022-12-20T15:36:21;3.10;99.90
17571;DHT22;8903;52.220;20.978;2022-12-20T15:38:49;3.10;99.90
17571;DHT22;8903;52.220;20.978;2022-12-20T15:41:20;3.10;99.90
17571;DHT22;8903;52.220;20.978;2022-12-20T15:43:50;3.00;99.90
17571;DHT22;8903;52.220;20.978;2022-12-20T15:46:18;3.10;99.90
17571;DHT22;8903;52.220;20.978;2022-12-20T15:48:45;3.00;99.90
17571;DHT22;8903;52.220;20.978;2022-12-20T15:51:17;3.10;99.90
17571;DHT22;8903;52.220;20.978;2022-12-20T15:53:46;3.00;99.90
17571;DHT22;8903;52.220;20.978;2022-12-20T15:56:17;3.10;99.90
17571;DHT22;8903;52.220;20.978;2022-12-20T15:58:46;3.00;99.90
17571;DHT22;8903;52.220;20.978;2022-12-20T16:01:18;3.10;99.90
17571;DHT22;8903;52.220;20.978;2022-12-20T16:03:45;3.00;99.90
17571;DHT22;8903;52.220;20.978;2022-12-20T16:06:14;3.00;99.90
17571;DHT22;8903;52.220;20.978;2022-12-20T16:08:41;3.00;99.90
17571;DHT22;8903;52.220;20.978;2022-12-20T16:11:18;3.00;99.90
17571;DHT22;8903;52.220;20.978;2022-12-20T16:13:46;3.00;99.90
17571;DHT22;8903;52.220;20.978;2022-12-20T16:16:15;3.00;99.90
17571;DHT22;8903;52.220;20.978;2022-12-20T16:18:42;3.00;99.90
17571;DHT22;8903;52.220;20.978;2022-12-20T16:21:15;3.00;99.90
17571;DHT22;8903;52.220;20.978;2022-12-20T16:23:43;3.00;99.90
17571;DHT22;8903;52.220;20.978;2022-12-20T16:26:12;2.90;99.90
17571;DHT22;8903;52.220;20.978;2022-12-20T16:28:39;2.90;99.90
17571;DHT22;8903;52.220;20.978;2022-12-20T16:31:10;3.00;99.90